Algowood — VCTD — position and weather

sailwx.info

Track history (hours):
 
Tides and Currents Weather Stations Pressure Air Temp Water Temp Dewpoint Dewpoint Depression Visibility Wind Speed Wind Dir Waves Ship Positions

Algowood

Last reported at 2017-Sep-18 20:45 UTC. Time now 2017-Sep-23 18:30 UTC.
Position N 45°29' W 083°17'.

Length 223 m; draft 7 m.

Type: Cargo ship. MMSI: 316001802.

Date/timePositionNaut miles runAvg speedWind from/ knotsBaromVisibWave heightAir tempDewpointWater temp
2017-Sep-18 20:45N 45°29' W 083°17'311.0
2017-Sep-18 20:30N 45°31' W 083°20'511.0
2017-Sep-18 20:00N 45°35' W 083°25'610.9
2017-Sep-18 19:30N 45°39' W 083°30'610.9
2017-Sep-18 18:55N 45°44' W 083°37'1710.6
2017-Sep-18 17:18N 45°56' W 083°53'320 8.9
2017-Sep-17 05:22N 46°56' W 091°29'411.1
2017-Sep-17 05:00N 46°54' W 091°34'510.9
2017-Sep-17 04:30N 46°51' W 091°41'611.0
2017-Sep-17 04:00N 46°48' W 091°48'611.0
2017-Sep-17 03:30N 46°45' W 091°55'510.1
2017-Sep-17 03:00N 46°42' W 092°01'0 0.8
2017-Sep-17 02:30N 46°42' W 092°01'0 0.0
2017-Sep-17 02:00N 46°42' W 092°01'0 0.0
2017-Sep-17 01:30N 46°42' W 092°01'0 0.0
2017-Sep-17 01:00N 46°42' W 092°01'0 0.0
2017-Sep-17 00:30N 46°42' W 092°01'0 0.0
2017-Sep-17 00:00N 46°42' W 092°01'0 0.0
2017-Sep-16 23:30N 46°42' W 092°01'0 0.0
2017-Sep-16 23:00N 46°42' W 092°01'0 0.0
2017-Sep-16 22:30N 46°42' W 092°01'0 0.0
2017-Sep-16 22:00N 46°42' W 092°01'0 0.0
2017-Sep-16 21:30N 46°42' W 092°01'0 0.0
2017-Sep-16 21:00N 46°42' W 092°01'0 0.0
2017-Sep-16 20:30N 46°42' W 092°01'0 0.0
2017-Sep-16 20:00N 46°42' W 092°01'0 0.0
2017-Sep-16 19:30N 46°42' W 092°01'0 0.0
2017-Sep-16 19:00N 46°42' W 092°01'0 0.0
2017-Sep-16 18:30N 46°42' W 092°01'0 0.0
2017-Sep-16 18:00N 46°42' W 092°01'0 0.0
2017-Sep-16 17:30N 46°42' W 092°01'0 0.0
2017-Sep-16 17:00N 46°42' W 092°01'0 0.0
2017-Sep-16 16:30N 46°42' W 092°01'0 0.0
2017-Sep-16 16:00N 46°42' W 092°01'0 0.0
2017-Sep-16 15:30N 46°42' W 092°01'0 0.0
2017-Sep-16 15:00N 46°42' W 092°01'0 0.0
2017-Sep-16 14:30N 46°42' W 092°01'0 0.0
2017-Sep-16 14:00N 46°42' W 092°01'0 0.0
2017-Sep-16 13:30N 46°42' W 092°01'0 0.0
2017-Sep-16 13:00N 46°42' W 092°01'0 1.0
2017-Sep-16 12:30N 46°42' W 092°01'2 3.5
2017-Sep-16 12:00N 46°44' W 091°60'0 0.4
2017-Sep-16 11:30N 46°44' W 091°60'0 0.0
2017-Sep-16 11:00N 46°44' W 091°60'0 0.1
2017-Sep-16 10:30N 46°44' W 092°00'0 0.0
2017-Sep-16 10:00N 46°44' W 092°00'0 0.1
2017-Sep-16 09:30N 46°44' W 091°60'0 0.1
2017-Sep-16 09:00N 46°44' W 091°60'0 0.1
2017-Sep-16 08:30N 46°44' W 092°00'0 0.2
2017-Sep-16 08:00N 46°44' W 091°60'0 0.2
2017-Sep-16 07:30N 46°44' W 092°00'0 0.0
2017-Sep-16 07:00N 46°44' W 092°00'0 0.1
2017-Sep-16 06:30N 46°44' W 091°60'0 0.2
2017-Sep-16 06:00N 46°44' W 092°00'0 0.2
2017-Sep-16 05:30N 46°44' W 091°60'0 0.2
2017-Sep-16 05:00N 46°44' W 092°00'0 0.2
2017-Sep-16 04:30N 46°44' W 091°60'0 0.2
2017-Sep-16 04:00N 46°44' W 092°00'0 0.2
2017-Sep-16 03:30N 46°44' W 091°60'0 0.2
2017-Sep-16 03:00N 46°44' W 091°60'0 0.0
2017-Sep-16 02:30N 46°44' W 092°00'0 0.2
2017-Sep-16 02:00N 46°44' W 091°60'0 0.2
2017-Sep-16 01:30N 46°44' W 091°60'0 0.0
2017-Sep-16 01:00N 46°44' W 091°60'0 0.2
2017-Sep-16 00:30N 46°44' W 091°60'0 0.1
2017-Sep-16 00:00N 46°44' W 091°60'0 0.1
2017-Sep-15 23:30N 46°44' W 091°60'0 0.1
2017-Sep-15 23:00N 46°44' W 091°60'0 0.2
2017-Sep-15 22:30N 46°44' W 091°60'0 0.1
2017-Sep-15 22:00N 46°44' W 091°60'0 0.2
2017-Sep-15 21:30N 46°44' W 091°60'0 0.2
2017-Sep-15 21:00N 46°44' W 091°60'0 0.5
2017-Sep-15 20:30N 46°44' W 091°59'0 0.1
2017-Sep-15 20:00N 46°44' W 091°59'0 0.1
2017-Sep-15 19:30N 46°44' W 091°59'1 1.6
2017-Sep-15 19:00N 46°44' W 092°01'1 1.3
2017-Sep-15 18:30N 46°44' W 091°60'1 2.8
2017-Sep-15 18:00N 46°44' W 092°02'0 0.8
2017-Sep-15 17:30N 46°44' W 092°01'0 0.1
2017-Sep-15 17:00N 46°44' W 092°01'0 0.0
2017-Sep-15 16:30N 46°44' W 092°01'0 0.1
2017-Sep-15 16:00N 46°44' W 092°01'0 0.1
2017-Sep-15 15:30N 46°44' W 092°01'0 0.2
2017-Sep-15 15:00N 46°44' W 092°01'0 0.1
2017-Sep-15 14:30N 46°44' W 092°01'0 0.0
2017-Sep-15 00:43N 46°44' W 092°01'0 0.0
2017-Sep-15 00:30N 46°44' W 092°01'0 0.0
2017-Sep-15 00:00N 46°44' W 092°01'0 0.0
2017-Sep-14 23:30N 46°44' W 092°01'0 0.0
2017-Sep-14 23:00N 46°44' W 092°01'0 0.0
2017-Sep-14 22:30N 46°44' W 092°01'0 0.0
2017-Sep-14 22:00N 46°44' W 092°01'0 0.0
2017-Sep-14 21:30N 46°44' W 092°01'0 0.0
2017-Sep-14 21:00N 46°44' W 092°01'0 0.0
2017-Sep-14 20:30N 46°44' W 092°01'0 0.0
2017-Sep-14 20:00N 46°44' W 092°01'0 0.0
2017-Sep-14 19:30N 46°44' W 092°01'0 0.0
2017-Sep-14 19:00N 46°44' W 092°01'0 0.0
2017-Sep-14 18:30N 46°44' W 092°01'0 0.2
2017-Sep-14 18:00N 46°44' W 092°01'2 3.3
2017-Sep-14 17:30N 46°43' W 091°59'5 9.3
2017-Sep-14 17:00N 46°45' W 091°53'611.2
2017-Sep-14 16:30N 46°48' W 091°45'611.3
2017-Sep-14 16:00N 46°50' W 091°38'27310.9
2017-Sep-13 14:53N 46°48' W 084°59'1411.2
2017-Sep-13 13:35N 46°36' W 084°47'111.6
2017-Sep-13 13:30N 46°36' W 084°46'611.7
2017-Sep-13 12:59N 46°32' W 084°39'511.3
2017-Sep-13 12:30N 46°28' W 084°34'4 8.7
2017-Sep-13 12:00N 46°29' W 084°27'5 1.9
2017-Sep-13 09:18N 46°30' W 084°20'0 0.0
2017-Sep-13 09:00N 46°30' W 084°20'0 0.5
2017-Sep-13 08:27N 46°30' W 084°20'1 2.8
2017-Sep-13 08:00N 46°30' W 084°18'4 6.9
2017-Sep-13 07:30N 46°26' W 084°16'5 8.8
2017-Sep-13 06:52N 46°22' W 084°12'4 8.4
2017-Sep-13 06:22N 46°19' W 084°07'3 7.7
2017-Sep-13 06:00N 46°16' W 084°07'3 6.5
2017-Sep-13 05:30N 46°13' W 084°07'5 9.7
2017-Sep-13 05:00N 46°09' W 084°03'510.0
2017-Sep-13 04:30N 46°04' W 084°01'611.0
2017-Sep-13 04:00N 46°02' W 083°54'5 9.4
2017-Sep-13 03:30N 45°57' W 083°54'510.9
2017-Sep-13 03:00N 45°52' W 083°50'611.4
2017-Sep-13 02:30N 45°48' W 083°45'510.9
2017-Sep-13 02:00N 45°43' W 083°40'611.4
2017-Sep-13 01:30N 45°41' W 083°33'611.5
2017-Sep-13 01:00N 45°40' W 083°25'4 8.7
2017-Sep-13 00:30N 45°42' W 083°20'611.4
2017-Sep-13 00:00N 45°48' W 083°17'611.4
2017-Sep-12 23:30N 45°53' W 083°15'510.6
2017-Sep-12 23:00N 45°58' W 083°13'1411.4
2017-Sep-12 21:46N 46°04' W 082°54'511.4
2017-Sep-12 21:18N 46°06' W 082°48'311.1
2017-Sep-12 21:00N 46°07' W 082°43'3 6.6
2017-Sep-12 20:29N 46°11' W 082°44'0 0.3
2017-Sep-12 19:55N 46°11' W 082°43'2 0.8
2017-Sep-12 17:55N 46°12' W 082°42'0 0.0
2017-Sep-12 17:29N 46°12' W 082°42'0 0.0
2017-Sep-12 17:00N 46°12' W 082°42'0 0.0
2017-Sep-12 16:30N 46°12' W 082°42'0 0.0
2017-Sep-12 16:00N 46°12' W 082°42'0 0.0
2017-Sep-12 15:30N 46°12' W 082°42'0 0.0
2017-Sep-12 14:59N 46°12' W 082°42'0 0.0
2017-Sep-12 13:21N 46°12' W 082°42'1 0.1
2017-Sep-12 08:10N 46°11' W 082°42'0 0.0
2017-Sep-12 07:48N 46°11' W 082°42'0 0.0
2017-Sep-12 05:16N 46°11' W 082°42'0 0.1
2017-Sep-12 04:56N 46°11' W 082°42'1 1.2
2017-Sep-12 04:20N 46°11' W 082°43'29 8.5
2017-Sep-12 00:58N 45°53' W 083°15'511.0
2017-Sep-12 00:29N 45°47' W 083°17'4 8.6
2017-Sep-12 00:00N 45°45' W 083°22'1410.5
2017-Sep-11 22:41N 45°50' W 083°41'  
2017-Sep-09 06:25N 45°51' W 084°28'611.3
2017-Sep-09 05:53N 45°51' W 084°36'4 9.9
2017-Sep-09 05:28N 45°49' W 084°42'511.0
2017-Sep-09 04:59N 45°49' W 084°49'511.1
2017-Sep-09 04:30N 45°50' W 084°57'511.2
2017-Sep-09 04:00N 45°50' W 085°05'4 7.5
2017-Sep-09 03:30N 45°48' W 085°09'3 6.8
2017-Sep-09 03:00N 45°44' W 085°10'5 9.1
2017-Sep-09 02:30N 45°41' W 085°14'511.0
2017-Sep-09 02:00N 45°36' W 085°19'611.1
2017-Sep-09 01:30N 45°32' W 085°24'611.5
2017-Sep-09 01:00N 45°27' W 085°28'611.4
2017-Sep-09 00:30N 45°23' W 085°33'611.1
2017-Sep-09 00:00N 45°18' W 085°38'510.9
2017-Sep-08 23:30N 45°14' W 085°43'610.9
2017-Sep-08 23:00N 45°09' W 085°47'  
Track history (hours):
 
Tides and Currents Weather Stations Pressure Air Temp Water Temp Dewpoint Dewpoint Depression Visibility Wind Speed Wind Dir Waves Ship Positions

Algowood

Last reported at 2017-Sep-18 20:45 UTC. Time now 2017-Sep-23 18:30 UTC.
Position N 45°29' W 083°17'.

Length 223 m; draft 7 m.

Type: Cargo ship. MMSI: 316001802.

Date/timePositionNaut miles runAvg speedWind from/ knotsBaromVisibWave heightAir tempDewpointWater temp
2017-Sep-18 20:45N 45°29' W 083°17'311.0
2017-Sep-18 20:30N 45°31' W 083°20'511.0
2017-Sep-18 20:00N 45°35' W 083°25'610.9
2017-Sep-18 19:30N 45°39' W 083°30'610.9
2017-Sep-18 18:55N 45°44' W 083°37'1710.6
2017-Sep-18 17:18N 45°56' W 083°53'320 8.9
2017-Sep-17 05:22N 46°56' W 091°29'411.1
2017-Sep-17 05:00N 46°54' W 091°34'510.9
2017-Sep-17 04:30N 46°51' W 091°41'611.0
2017-Sep-17 04:00N 46°48' W 091°48'611.0
2017-Sep-17 03:30N 46°45' W 091°55'510.1
2017-Sep-17 03:00N 46°42' W 092°01'0 0.8
2017-Sep-17 02:30N 46°42' W 092°01'0 0.0
2017-Sep-17 02:00N 46°42' W 092°01'0 0.0
2017-Sep-17 01:30N 46°42' W 092°01'0 0.0
2017-Sep-17 01:00N 46°42' W 092°01'0 0.0
2017-Sep-17 00:30N 46°42' W 092°01'0 0.0
2017-Sep-17 00:00N 46°42' W 092°01'0 0.0
2017-Sep-16 23:30N 46°42' W 092°01'0 0.0
2017-Sep-16 23:00N 46°42' W 092°01'0 0.0
2017-Sep-16 22:30N 46°42' W 092°01'0 0.0
2017-Sep-16 22:00N 46°42' W 092°01'0 0.0
2017-Sep-16 21:30N 46°42' W 092°01'0 0.0
2017-Sep-16 21:00N 46°42' W 092°01'0 0.0
2017-Sep-16 20:30N 46°42' W 092°01'0 0.0
2017-Sep-16 20:00N 46°42' W 092°01'0 0.0
2017-Sep-16 19:30N 46°42' W 092°01'0 0.0
2017-Sep-16 19:00N 46°42' W 092°01'0 0.0
2017-Sep-16 18:30N 46°42' W 092°01'0 0.0
2017-Sep-16 18:00N 46°42' W 092°01'0 0.0
2017-Sep-16 17:30N 46°42' W 092°01'0 0.0
2017-Sep-16 17:00N 46°42' W 092°01'0 0.0
2017-Sep-16 16:30N 46°42' W 092°01'0 0.0
2017-Sep-16 16:00N 46°42' W 092°01'0 0.0
2017-Sep-16 15:30N 46°42' W 092°01'0 0.0
2017-Sep-16 15:00N 46°42' W 092°01'0 0.0
2017-Sep-16 14:30N 46°42' W 092°01'0 0.0
2017-Sep-16 14:00N 46°42' W 092°01'0 0.0
2017-Sep-16 13:30N 46°42' W 092°01'0 0.0
2017-Sep-16 13:00N 46°42' W 092°01'0 1.0
2017-Sep-16 12:30N 46°42' W 092°01'2 3.5
2017-Sep-16 12:00N 46°44' W 091°60'0 0.4
2017-Sep-16 11:30N 46°44' W 091°60'0 0.0
2017-Sep-16 11:00N 46°44' W 091°60'0 0.1
2017-Sep-16 10:30N 46°44' W 092°00'0 0.0
2017-Sep-16 10:00N 46°44' W 092°00'0 0.1
2017-Sep-16 09:30N 46°44' W 091°60'0 0.1
2017-Sep-16 09:00N 46°44' W 091°60'0 0.1
2017-Sep-16 08:30N 46°44' W 092°00'0 0.2
2017-Sep-16 08:00N 46°44' W 091°60'0 0.2
2017-Sep-16 07:30N 46°44' W 092°00'0 0.0
2017-Sep-16 07:00N 46°44' W 092°00'0 0.1
2017-Sep-16 06:30N 46°44' W 091°60'0 0.2
2017-Sep-16 06:00N 46°44' W 092°00'0 0.2
2017-Sep-16 05:30N 46°44' W 091°60'0 0.2
2017-Sep-16 05:00N 46°44' W 092°00'0 0.2
2017-Sep-16 04:30N 46°44' W 091°60'0 0.2
2017-Sep-16 04:00N 46°44' W 092°00'0 0.2
2017-Sep-16 03:30N 46°44' W 091°60'0 0.2
2017-Sep-16 03:00N 46°44' W 091°60'0 0.0
2017-Sep-16 02:30N 46°44' W 092°00'0 0.2
2017-Sep-16 02:00N 46°44' W 091°60'0 0.2
2017-Sep-16 01:30N 46°44' W 091°60'0 0.0
2017-Sep-16 01:00N 46°44' W 091°60'0 0.2
2017-Sep-16 00:30N 46°44' W 091°60'0 0.1
2017-Sep-16 00:00N 46°44' W 091°60'0 0.1
2017-Sep-15 23:30N 46°44' W 091°60'0 0.1
2017-Sep-15 23:00N 46°44' W 091°60'0 0.2
2017-Sep-15 22:30N 46°44' W 091°60'0 0.1
2017-Sep-15 22:00N 46°44' W 091°60'0 0.2
2017-Sep-15 21:30N 46°44' W 091°60'0 0.2
2017-Sep-15 21:00N 46°44' W 091°60'0 0.5
2017-Sep-15 20:30N 46°44' W 091°59'0 0.1
2017-Sep-15 20:00N 46°44' W 091°59'0 0.1
2017-Sep-15 19:30N 46°44' W 091°59'1 1.6
2017-Sep-15 19:00N 46°44' W 092°01'1 1.3
2017-Sep-15 18:30N 46°44' W 091°60'1 2.8
2017-Sep-15 18:00N 46°44' W 092°02'0 0.8
2017-Sep-15 17:30N 46°44' W 092°01'0 0.1
2017-Sep-15 17:00N 46°44' W 092°01'0 0.0
2017-Sep-15 16:30N 46°44' W 092°01'0 0.1
2017-Sep-15 16:00N 46°44' W 092°01'0 0.1
2017-Sep-15 15:30N 46°44' W 092°01'0 0.2
2017-Sep-15 15:00N 46°44' W 092°01'0 0.1
2017-Sep-15 14:30N 46°44' W 092°01'0 0.0
2017-Sep-15 00:43N 46°44' W 092°01'0 0.0
2017-Sep-15 00:30N 46°44' W 092°01'0 0.0
2017-Sep-15 00:00N 46°44' W 092°01'0 0.0
2017-Sep-14 23:30N 46°44' W 092°01'0 0.0
2017-Sep-14 23:00N 46°44' W 092°01'0 0.0
2017-Sep-14 22:30N 46°44' W 092°01'0 0.0
2017-Sep-14 22:00N 46°44' W 092°01'0 0.0
2017-Sep-14 21:30N 46°44' W 092°01'0 0.0
2017-Sep-14 21:00N 46°44' W 092°01'0 0.0
2017-Sep-14 20:30N 46°44' W 092°01'0 0.0
2017-Sep-14 20:00N 46°44' W 092°01'0 0.0
2017-Sep-14 19:30N 46°44' W 092°01'0 0.0
2017-Sep-14 19:00N 46°44' W 092°01'0 0.0
2017-Sep-14 18:30N 46°44' W 092°01'0 0.2
2017-Sep-14 18:00N 46°44' W 092°01'2 3.3
2017-Sep-14 17:30N 46°43' W 091°59'5 9.3
2017-Sep-14 17:00N 46°45' W 091°53'611.2
2017-Sep-14 16:30N 46°48' W 091°45'611.3
2017-Sep-14 16:00N 46°50' W 091°38'27310.9
2017-Sep-13 14:53N 46°48' W 084°59'1411.2
2017-Sep-13 13:35N 46°36' W 084°47'111.6
2017-Sep-13 13:30N 46°36' W 084°46'611.7
2017-Sep-13 12:59N 46°32' W 084°39'511.3
2017-Sep-13 12:30N 46°28' W 084°34'4 8.7
2017-Sep-13 12:00N 46°29' W 084°27'5 1.9
2017-Sep-13 09:18N 46°30' W 084°20'0 0.0
2017-Sep-13 09:00N 46°30' W 084°20'0 0.5
2017-Sep-13 08:27N 46°30' W 084°20'1 2.8
2017-Sep-13 08:00N 46°30' W 084°18'4 6.9
2017-Sep-13 07:30N 46°26' W 084°16'5 8.8
2017-Sep-13 06:52N 46°22' W 084°12'4 8.4
2017-Sep-13 06:22N 46°19' W 084°07'3 7.7
2017-Sep-13 06:00N 46°16' W 084°07'3 6.5
2017-Sep-13 05:30N 46°13' W 084°07'5 9.7
2017-Sep-13 05:00N 46°09' W 084°03'510.0
2017-Sep-13 04:30N 46°04' W 084°01'611.0
2017-Sep-13 04:00N 46°02' W 083°54'5 9.4
2017-Sep-13 03:30N 45°57' W 083°54'510.9
2017-Sep-13 03:00N 45°52' W 083°50'611.4
2017-Sep-13 02:30N 45°48' W 083°45'510.9
2017-Sep-13 02:00N 45°43' W 083°40'611.4
2017-Sep-13 01:30N 45°41' W 083°33'611.5
2017-Sep-13 01:00N 45°40' W 083°25'4 8.7
2017-Sep-13 00:30N 45°42' W 083°20'611.4
2017-Sep-13 00:00N 45°48' W 083°17'611.4
2017-Sep-12 23:30N 45°53' W 083°15'510.6
2017-Sep-12 23:00N 45°58' W 083°13'1411.4
2017-Sep-12 21:46N 46°04' W 082°54'511.4
2017-Sep-12 21:18N 46°06' W 082°48'311.1
2017-Sep-12 21:00N 46°07' W 082°43'3 6.6
2017-Sep-12 20:29N 46°11' W 082°44'0 0.3
2017-Sep-12 19:55N 46°11' W 082°43'2 0.8
2017-Sep-12 17:55N 46°12' W 082°42'0 0.0
2017-Sep-12 17:29N 46°12' W 082°42'0 0.0
2017-Sep-12 17:00N 46°12' W 082°42'0 0.0
2017-Sep-12 16:30N 46°12' W 082°42'0 0.0
2017-Sep-12 16:00N 46°12' W 082°42'0 0.0
2017-Sep-12 15:30N 46°12' W 082°42'0 0.0
2017-Sep-12 14:59N 46°12' W 082°42'0 0.0
2017-Sep-12 13:21N 46°12' W 082°42'1 0.1
2017-Sep-12 08:10N 46°11' W 082°42'0 0.0
2017-Sep-12 07:48N 46°11' W 082°42'0 0.0
2017-Sep-12 05:16N 46°11' W 082°42'0 0.1
2017-Sep-12 04:56N 46°11' W 082°42'1 1.2
2017-Sep-12 04:20N 46°11' W 082°43'29 8.5
2017-Sep-12 00:58N 45°53' W 083°15'511.0
2017-Sep-12 00:29N 45°47' W 083°17'4 8.6
2017-Sep-12 00:00N 45°45' W 083°22'1410.5
2017-Sep-11 22:41N 45°50' W 083°41'  
2017-Sep-09 06:25N 45°51' W 084°28'611.3
2017-Sep-09 05:53N 45°51' W 084°36'4 9.9
2017-Sep-09 05:28N 45°49' W 084°42'511.0
2017-Sep-09 04:59N 45°49' W 084°49'511.1
2017-Sep-09 04:30N 45°50' W 084°57'511.2
2017-Sep-09 04:00N 45°50' W 085°05'4 7.5
2017-Sep-09 03:30N 45°48' W 085°09'3 6.8
2017-Sep-09 03:00N 45°44' W 085°10'5 9.1
2017-Sep-09 02:30N 45°41' W 085°14'511.0
2017-Sep-09 02:00N 45°36' W 085°19'611.1
2017-Sep-09 01:30N 45°32' W 085°24'611.5
2017-Sep-09 01:00N 45°27' W 085°28'611.4
2017-Sep-09 00:30N 45°23' W 085°33'611.1
2017-Sep-09 00:00N 45°18' W 085°38'510.9
2017-Sep-08 23:30N 45°14' W 085°43'610.9
2017-Sep-08 23:00N 45°09' W 085°47'  

Dump ship's entire track history